Date,TemperatureHighF,TemperatureAvgF,TemperatureLowF,DewpointHighF,DewpointAvgF,DewpointLowF,HumidityHigh,HumidityAvg,HumidityLow,PressureMaxIn,PressureMinIn,WindSpeedMaxMPH,WindSpeedAvgMPH,GustSpeedMaxMPH,PrecipitationSumIn
2013-2-1,23.3,20.8,18.4,19.1,15.8,9.1,93,81,66,29.92,29.43,10,6,20,0.00
2013-2-2,21.6,18.9,15.8,17.7,13.2,6.7,90,78,65,29.92,29.73,10,6,17,0.00
2013-2-3,26.2,19.5,13.1,20.0,16.0,10.7,92,86,70,29.74,29.55,3,1,7,0.05
2013-2-7,29.9,27.0,20.6,24.8,18.9,13.0,89,72,64,30.15,29.82,11,8,16,0.00
2013-2-8,32.4,26.7,19.4,31.6,24.3,17.7,97,91,72,29.86,29.53,9,6,16,0.00
2013-2-9,23.5,19.0,12.0,20.6,16.9,9.9,94,91,88,30.15,29.87,4,2,7,0.09
2013-2-10,37.9,19.4,-2.5,30.1,15.3,-5.7,92,84,68,30.14,29.67,6,1,11,0.10
2013-2-11,51.0,39.9,33.5,43.1,34.1,28.9,93,80,67,29.67,29.30,14,7,27,0.21
2013-2-12,36.2,34.3,32.1,31.0,28.5,26.3,83,79,73,29.69,29.43,12,8,24,0.00
2013-2-13,32.3,32.0,31.7,27.1,26.5,25.8,82,80,78,29.63,29.61,5,3,8,0.00
2013-2-18,32.7,29.2,27.5,21.4,18.8,16.2,67,65,62,29.76,29.61,4,3,9,0.05
2013-2-19,44.7,35.5,26.3,39.0,28.4,19.6,90,76,60,29.60,29.28,14,7,26,0.08
2013-2-20,26.1,22.0,20.3,21.0,18.5,16.7,91,86,77,29.81,29.48,11,8,23,0.00
2013-2-21,24.0,20.0,14.0,18.7,14.8,8.7,87,80,76,30.14,29.79,8,4,20,0.00
2013-2-22,36.5,28.7,21.7,31.5,24.2,17.1,92,83,72,30.13,29.71,10,5,16,0.01
2013-2-23,39.8,35.3,29.5,33.7,30.0,25.3,87,81,75,29.71,29.60,8,4,13,0.01
2013-2-24,35.0,32.2,30.1,30.3,27.9,26.0,91,84,73,29.80,29.58,8,5,15,0.00
2013-2-25,36.2,33.7,29.9,31.7,29.5,27.0,91,85,75,29.97,29.80,5,2,10,0.02
2013-2-26,42.8,34.7,24.8,34.0,29.4,23.3,95,82,62,29.97,29.52,10,5,18,0.76
2013-2-27,36.0,34.3,33.1,34.7,33.2,32.2,97,96,94,29.52,29.31,11,4,17,0.42
2013-2-28,36.1,34.7,33.4,35.1,33.6,32.4,97,96,94,29.48,29.27,5,2,10,0.34